createdAt,value
2023-05-09T00:02:55.467Z,101078.81
2023-05-09T00:05:58.045Z,101083.91
2023-05-09T00:09:00.715Z,101078.00
2023-05-09T00:12:04.424Z,101076.22
2023-05-09T00:15:10.413Z,101070.63
2023-05-09T00:18:14.725Z,101072.34
2023-05-09T00:21:17.359Z,101073.19
2023-05-09T00:24:19.975Z,101070.69
2023-05-09T00:27:22.508Z,101067.81
2023-05-09T00:30:25.272Z,101066.53
2023-05-09T00:33:27.948Z,101060.47
2023-05-09T00:36:30.620Z,101056.22
2023-05-09T00:39:33.178Z,101063.56
2023-05-09T00:42:36.072Z,101058.97
2023-05-09T00:45:38.631Z,101052.97
2023-05-09T00:48:41.245Z,101058.03
2023-05-09T00:51:44.026Z,101058.75
2023-05-09T00:54:46.679Z,101058.44
2023-05-09T00:57:49.290Z,101059.06
2023-05-09T01:00:52.028Z,101063.75
2023-05-09T01:03:55.003Z,101054.25
2023-05-09T01:06:57.614Z,101061.44
2023-05-09T01:10:08.351Z,101054.56
2023-05-09T01:13:17.088Z,101060.44
2023-05-09T01:16:26.625Z,101066.19
2023-05-09T01:20:10.797Z,101064.22
2023-05-09T01:23:25.495Z,101060.69
2023-05-09T01:26:37.227Z,101057.87
2023-05-09T01:29:39.853Z,101062.09
2023-05-09T01:32:44.118Z,101050.06
2023-05-09T01:35:49.949Z,101053.22
2023-05-09T01:38:52.774Z,101059.16
2023-05-09T01:41:56.682Z,101053.94
2023-05-09T01:44:59.695Z,101053.94
2023-05-09T01:48:02.937Z,101044.69
2023-05-09T01:51:06.566Z,101049.91
2023-05-09T01:54:09.843Z,101040.87
2023-05-09T01:57:12.906Z,101040.00
2023-05-09T02:00:16.678Z,101034.88
2023-05-09T02:03:20.142Z,101040.81
2023-05-09T02:06:24.446Z,101041.56
2023-05-09T02:09:27.170Z,101039.63
2023-05-09T02:12:29.800Z,101033.28
2023-05-09T02:15:32.735Z,101033.22
2023-05-09T02:18:37.303Z,101032.25
2023-05-09T02:21:39.834Z,101024.31
2023-05-09T02:24:44.162Z,101030.84
2023-05-09T02:27:46.922Z,101023.47
2023-05-09T02:30:51.518Z,101023.41
2023-05-09T02:33:54.963Z,101026.94
2023-05-09T02:36:57.904Z,101027.22
2023-05-09T02:40:00.352Z,101017.47
2023-05-09T02:43:04.187Z,101022.28
2023-05-09T02:46:06.688Z,101018.72
2023-05-09T02:49:10.227Z,101023.16
2023-05-09T02:52:17.471Z,101011.03
2023-05-09T02:55:20.443Z,101010.81
2023-05-09T02:58:22.893Z,101019.16
2023-05-09T03:01:25.827Z,101023.91
2023-05-09T03:04:28.200Z,101016.75
2023-05-09T03:07:31.202Z,101017.44
2023-05-09T03:10:34.176Z,101018.78
2023-05-09T03:13:37.059Z,101013.91
2023-05-09T03:16:39.465Z,101016.63
2023-05-09T03:19:43.076Z,101012.25
2023-05-09T03:22:45.444Z,101009.63
2023-05-09T03:25:48.422Z,101005.34
2023-05-09T03:28:51.715Z,101011.50
2023-05-09T03:31:55.599Z,101012.56
2023-05-09T03:34:58.410Z,101015.69
2023-05-09T03:38:01.892Z,101018.09
2023-05-09T03:41:04.655Z,101026.13
2023-05-09T03:44:08.672Z,101018.31
2023-05-09T03:47:10.983Z,101030.37
2023-05-09T03:50:13.915Z,101031.78
2023-05-09T03:53:16.729Z,101026.22
2023-05-09T03:56:20.777Z,101034.88
2023-05-09T03:59:24.210Z,101035.19
2023-05-09T04:02:27.628Z,101034.47
2023-05-09T04:05:30.636Z,101033.87
2023-05-09T04:08:33.821Z,101026.87
2023-05-09T04:11:36.631Z,101027.53
2023-05-09T04:14:40.913Z,101035.75
2023-05-09T04:17:44.170Z,101034.19
2023-05-09T04:20:46.964Z,101028.16
2023-05-09T04:23:50.051Z,101031.75
2023-05-09T04:26:53.290Z,101030.66
2023-05-09T04:29:56.380Z,101033.37
2023-05-09T04:32:59.173Z,101027.53
2023-05-09T04:36:03.039Z,101031.94
2023-05-09T04:39:05.824Z,101032.91
2023-05-09T04:42:08.942Z,101026.38
2023-05-09T04:45:12.048Z,101037.00
2023-05-09T04:48:15.056Z,101035.31
2023-05-09T04:51:17.922Z,101039.41
2023-05-09T04:54:21.505Z,101038.66
2023-05-09T04:57:27.033Z,101035.31
2023-05-09T05:00:30.334Z,101040.81
2023-05-09T05:03:33.600Z,101040.50
2023-05-09T05:06:36.472Z,101040.31
2023-05-09T05:09:39.960Z,101036.78
2023-05-09T05:12:43.018Z,101048.81
2023-05-09T05:15:46.200Z,101044.06
2023-05-09T05:18:49.262Z,101044.47
2023-05-09T05:21:52.625Z,101045.22
2023-05-09T05:24:55.556Z,101045.81
2023-05-09T05:27:58.481Z,101044.06
2023-05-09T05:31:01.906Z,101036.31
2023-05-09T05:34:04.524Z,101049.44
2023-05-09T05:37:07.618Z,101042.84
2023-05-09T05:40:11.174Z,101038.19
2023-05-09T05:43:14.259Z,101032.03
2023-05-09T05:46:16.942Z,101025.81
2023-05-09T05:49:19.788Z,101027.56
2023-05-09T05:52:22.834Z,101031.25
2023-05-09T05:55:25.427Z,101030.84
2023-05-09T05:58:28.226Z,101038.53
2023-05-09T06:01:30.989Z,101037.44
2023-05-09T06:04:34.305Z,101035.91
2023-05-09T06:07:36.934Z,101027.22
2023-05-09T06:10:39.871Z,101034.75
2023-05-09T06:13:42.250Z,101037.75
2023-05-09T06:16:46.547Z,101038.56
2023-05-09T06:19:50.214Z,101039.72
2023-05-09T06:22:54.194Z,101041.13
2023-05-09T06:25:56.515Z,101040.78
2023-05-09T06:29:00.143Z,101034.22
2023-05-09T06:32:02.587Z,101028.91
2023-05-09T06:35:05.992Z,101027.91
2023-05-09T06:38:08.342Z,101023.69
2023-05-09T06:41:11.394Z,101022.94
2023-05-09T06:44:13.786Z,101017.97
2023-05-09T06:47:19.268Z,101018.34
2023-05-09T06:50:21.582Z,101015.25
2023-05-09T06:53:24.746Z,101013.53
2023-05-09T06:56:27.278Z,101012.59
2023-05-09T06:59:30.314Z,101004.56
2023-05-09T07:02:33.067Z,101005.19
2023-05-09T07:05:36.149Z,101007.34
2023-05-09T07:08:38.568Z,100996.19
2023-05-09T07:11:41.480Z,100993.03
2023-05-09T07:14:43.829Z,100991.34
2023-05-09T07:17:46.776Z,100992.22
2023-05-09T07:20:49.142Z,100999.34
2023-05-09T07:23:52.308Z,100988.53
2023-05-09T07:26:57.447Z,100975.19
2023-05-09T07:30:00.372Z,100972.22
2023-05-09T07:33:02.838Z,100980.72
2023-05-09T07:36:05.892Z,100966.19
2023-05-09T07:39:08.251Z,100964.62
2023-05-09T07:42:11.296Z,100967.03
2023-05-09T07:45:13.884Z,100963.09
2023-05-09T07:48:16.907Z,100954.91
2023-05-09T07:51:19.231Z,100966.78
2023-05-09T07:54:22.308Z,100951.09
2023-05-09T07:57:24.626Z,100951.66
2023-05-09T08:00:27.872Z,100946.56
2023-05-09T08:03:33.580Z,100935.22
2023-05-09T08:06:36.744Z,100937.53
2023-05-09T08:09:39.778Z,100935.22
2023-05-09T08:12:42.468Z,100928.28
2023-05-09T08:15:45.136Z,100930.31
2023-05-09T08:18:48.055Z,100931.28
2023-05-09T08:21:50.776Z,100919.00
2023-05-09T08:24:53.354Z,100921.78
2023-05-09T08:27:55.980Z,100925.34
2023-05-09T08:30:58.700Z,100912.84
2023-05-09T08:34:01.346Z,100914.56
2023-05-09T08:37:04.359Z,100903.75
2023-05-09T08:40:07.830Z,100909.66
2023-05-09T08:43:11.829Z,100907.87
2023-05-09T08:49:40.091Z,100907.47
2023-05-09T08:52:42.758Z,100900.28
2023-05-09T08:55:45.771Z,100895.34
2023-05-09T08:58:48.783Z,100896.84
2023-05-09T09:01:53.428Z,100886.69
2023-05-09T09:04:56.489Z,100887.34
2023-05-09T09:07:59.809Z,100884.47
2023-05-09T09:11:02.928Z,100886.75
2023-05-09T09:14:26.062Z,100870.78
2023-05-09T09:17:30.918Z,100867.56
2023-05-09T09:20:34.632Z,100865.91
2023-05-09T09:23:38.837Z,100870.94
2023-05-09T09:26:48.512Z,100870.72
2023-05-09T09:29:51.187Z,100867.50
2023-05-09T09:32:53.830Z,100873.09
2023-05-09T09:35:59.741Z,100872.88
2023-05-09T09:39:06.325Z,100865.41
2023-05-09T09:42:12.240Z,100867.13
2023-05-09T09:45:18.883Z,100871.53
2023-05-09T09:48:25.943Z,100865.25
2023-05-09T09:51:29.502Z,100869.12
2023-05-09T09:54:32.598Z,100863.81
2023-05-09T09:57:39.833Z,100858.22
2023-05-09T10:00:42.465Z,100876.72
2023-05-09T10:03:48.275Z,100861.50
2023-05-09T10:07:17.351Z,100868.53
2023-05-09T10:10:20.546Z,100846.56
2023-05-09T10:13:23.067Z,100844.97
2023-05-09T10:16:36.053Z,100849.75
2023-05-09T10:19:46.456Z,100829.59
2023-05-09T10:22:50.531Z,100843.59
2023-05-09T10:26:09.988Z,100843.31
2023-05-09T10:29:15.877Z,100845.75
2023-05-09T10:32:20.634Z,100840.59
2023-05-09T10:35:28.063Z,100837.03
2023-05-09T10:38:30.805Z,100832.63
2023-05-09T10:41:33.997Z,100833.66
2023-05-09T10:44:37.601Z,100828.88
2023-05-09T10:47:41.718Z,100832.28
2023-05-09T10:50:45.317Z,100828.38
2023-05-09T10:53:52.115Z,100827.53
2023-05-09T10:56:58.451Z,100834.09
2023-05-09T11:00:01.379Z,100818.69
2023-05-09T11:03:10.299Z,100819.81
2023-05-09T11:06:33.660Z,100819.78
2023-05-09T11:09:38.199Z,100826.97
2023-05-09T11:12:58.085Z,100823.03
2023-05-09T11:16:02.396Z,100818.41
2023-05-09T11:19:06.062Z,100810.13
2023-05-09T11:22:15.816Z,100807.53
2023-05-09T11:25:25.215Z,100801.06
2023-05-09T11:28:28.837Z,100787.66
2023-05-09T11:31:31.899Z,100792.94
2023-05-09T11:34:36.472Z,100793.53
2023-05-09T11:37:40.115Z,100788.59
2023-05-09T11:40:43.249Z,100789.34
2023-05-09T11:43:46.505Z,100786.97
2023-05-09T11:46:49.304Z,100775.16
2023-05-09T11:49:54.383Z,100785.94
2023-05-09T11:52:56.708Z,100777.88
2023-05-09T11:56:02.478Z,100777.47
2023-05-09T11:59:04.830Z,100781.44
2023-05-09T12:02:08.030Z,100778.16
2023-05-09T12:05:11.654Z,100783.31
2023-05-09T12:08:15.516Z,100766.06
2023-05-09T12:11:18.852Z,100765.72
2023-05-09T12:14:31.514Z,100758.75
2023-05-09T12:17:37.602Z,100754.94
2023-05-09T12:20:44.331Z,100750.16
2023-05-09T12:23:50.737Z,100747.81
2023-05-09T12:26:54.895Z,100742.50
2023-05-09T12:29:57.725Z,100751.09
2023-05-09T12:33:01.018Z,100750.62
2023-05-09T12:36:03.935Z,100739.09
2023-05-09T12:39:13.208Z,100732.44
2023-05-09T12:42:30.966Z,100745.22
2023-05-09T12:45:33.850Z,100736.88
2023-05-09T12:48:39.867Z,100733.06
2023-05-09T12:51:48.047Z,100723.72
2023-05-09T12:54:52.404Z,100719.47
2023-05-09T12:58:02.325Z,100713.59
2023-05-09T13:01:05.728Z,100709.34
2023-05-09T13:04:08.817Z,100716.50
2023-05-09T13:07:13.117Z,100711.19
2023-05-09T13:10:18.584Z,100704.13
2023-05-09T13:13:26.588Z,100700.59
2023-05-09T13:16:29.053Z,100706.78
2023-05-09T13:19:33.613Z,100703.25
2023-05-09T13:22:36.224Z,100689.97
2023-05-09T13:25:39.610Z,100687.28
2023-05-09T13:28:41.970Z,100692.62
2023-05-09T13:31:45.093Z,100694.41
2023-05-09T13:34:47.448Z,100692.62
2023-05-09T13:37:51.088Z,100689.91
2023-05-09T13:40:53.582Z,100681.94
2023-05-09T13:43:56.493Z,100684.59
2023-05-09T13:47:00.233Z,100670.50
2023-05-09T13:50:04.100Z,100679.38
2023-05-09T13:53:06.418Z,100681.06
2023-05-09T13:56:09.781Z,100665.19
2023-05-09T13:59:12.393Z,100677.50
2023-05-09T14:02:15.327Z,100665.09
2023-05-09T14:05:18.072Z,100669.41
2023-05-09T14:08:21.499Z,100657.03
2023-05-09T14:11:25.562Z,100653.50
2023-05-09T14:14:28.371Z,100644.66
2023-05-09T14:17:31.081Z,100636.75
2023-05-09T14:20:37.133Z,100642.81
2023-05-09T14:23:39.818Z,100638.38
2023-05-09T14:26:42.735Z,100634.94
2023-05-09T14:29:45.924Z,100632.38
2023-05-09T14:32:48.881Z,100631.59
2023-05-09T14:35:51.775Z,100631.59
2023-05-09T14:38:54.588Z,100634.22
2023-05-09T14:41:57.249Z,100634.16
2023-05-09T14:44:59.888Z,100631.44
2023-05-09T14:48:05.256Z,100632.22
2023-05-09T14:51:08.276Z,100627.81
2023-05-09T14:54:10.983Z,100622.44
2023-05-09T14:57:13.617Z,100625.09
2023-05-09T15:00:21.884Z,100618.00
2023-05-09T15:03:25.182Z,100617.06
2023-05-09T15:06:29.229Z,100616.94
2023-05-09T15:09:31.863Z,100608.06
2023-05-09T15:12:34.476Z,100619.47
2023-05-09T15:15:40.659Z,100605.34
2023-05-09T15:18:45.546Z,100606.34
2023-05-09T15:21:48.533Z,100600.19
2023-05-09T15:24:51.169Z,100604.62
2023-05-09T15:27:54.177Z,100593.19
2023-05-09T15:30:58.131Z,100595.81
2023-05-09T15:34:01.461Z,100585.25
2023-05-09T15:37:04.110Z,100584.41
2023-05-09T15:40:07.941Z,100583.56
2023-05-09T15:43:10.664Z,100584.44
2023-05-09T15:46:13.571Z,100579.13
2023-05-09T15:49:17.003Z,100583.47
2023-05-09T15:52:19.622Z,100583.44
2023-05-09T15:55:23.161Z,100579.97
2023-05-09T15:58:25.963Z,100570.22
2023-05-09T16:01:28.787Z,100566.63
2023-05-09T16:04:32.479Z,100562.19
2023-05-09T16:07:35.909Z,100564.81
2023-05-09T16:10:38.903Z,100555.19
2023-05-09T16:13:41.330Z,100554.28
2023-05-09T16:16:47.119Z,100564.84
2023-05-09T16:19:49.482Z,100559.50
2023-05-09T16:22:52.712Z,100557.72
2023-05-09T16:25:55.043Z,100565.63
2023-05-09T16:28:57.913Z,100567.31
2023-05-09T16:32:00.343Z,100561.97
2023-05-09T16:35:03.404Z,100560.13
2023-05-09T16:38:05.881Z,100558.38
2023-05-09T16:41:08.794Z,100553.91
2023-05-09T16:44:11.276Z,100554.72
2023-05-09T16:47:14.194Z,100552.88
2023-05-09T16:50:16.837Z,100550.16
2023-05-09T16:53:22.805Z,100542.22
2023-05-09T16:56:25.218Z,100541.34
2023-05-09T16:59:28.101Z,100541.28
2023-05-09T17:02:30.424Z,100535.09
2023-05-09T17:05:33.582Z,100533.25
2023-05-09T17:08:35.887Z,100536.69
2023-05-09T17:11:38.790Z,100533.16
2023-05-09T17:14:41.321Z,100541.06
2023-05-09T17:17:47.390Z,100536.59
2023-05-09T17:20:49.811Z,100535.72
2023-05-09T17:23:54.234Z,100539.13
2023-05-09T17:26:56.812Z,100540.84
2023-05-09T17:29:59.749Z,100540.72
2023-05-09T17:33:02.907Z,100540.66
2023-05-09T17:36:06.309Z,100527.38
2023-05-09T17:39:08.623Z,100536.13
2023-05-09T17:42:12.432Z,100537.00
2023-05-09T17:45:14.830Z,100533.41
2023-05-09T17:48:18.239Z,100529.81
2023-05-09T17:51:21.077Z,100537.69
2023-05-09T17:54:24.605Z,100534.16
2023-05-09T17:57:27.445Z,100538.50
2023-05-09T18:00:30.652Z,100540.22
2023-05-09T18:03:33.377Z,100538.41
2023-05-09T18:06:36.207Z,100534.94
2023-05-09T18:09:38.852Z,100538.31
2023-05-09T18:12:45.242Z,100535.63
2023-05-09T18:15:48.144Z,100536.53
2023-05-09T18:18:50.801Z,100536.44
2023-05-09T18:21:55.520Z,100536.34
2023-05-09T18:24:58.638Z,100540.69
2023-05-09T18:28:01.608Z,100548.56
2023-05-09T18:31:04.472Z,100555.50
2023-05-09T18:34:07.460Z,100548.41
2023-05-09T18:37:10.650Z,100556.22
2023-05-09T18:40:15.965Z,100557.91
2023-05-09T18:43:20.910Z,100561.38
2023-05-09T18:46:23.604Z,100557.75
2023-05-09T18:49:26.839Z,100563.06
2023-05-09T18:52:31.192Z,100563.16
2023-05-09T18:55:33.926Z,100566.44
2023-05-09T18:58:36.716Z,100575.00
2023-05-09T19:01:39.542Z,100572.41
2023-05-09T19:04:42.307Z,100583.59
2023-05-09T19:07:45.388Z,100586.41
2023-05-09T19:10:48.013Z,100580.72
2023-05-09T19:13:52.788Z,100586.22
2023-05-09T19:16:55.635Z,100590.84
2023-05-09T19:19:58.352Z,100586.00
2023-05-09T19:23:01.773Z,100580.34
2023-05-09T19:26:04.627Z,100570.50
2023-05-09T19:29:08.323Z,100578.19
2023-05-09T19:32:11.540Z,100576.50
2023-05-09T19:35:14.044Z,100576.47
2023-05-09T19:38:16.981Z,100579.28
2023-05-09T19:41:19.416Z,100572.56
2023-05-09T19:44:22.463Z,100573.66
2023-05-09T19:47:24.902Z,100574.66
2023-05-09T19:50:28.334Z,100573.00
2023-05-09T19:53:30.761Z,100570.47
2023-05-09T19:56:33.722Z,100573.09
2023-05-09T19:59:36.378Z,100571.22
2023-05-09T20:02:39.427Z,100573.94
2023-05-09T20:05:42.134Z,100566.03
2023-05-09T20:08:46.934Z,100566.16
2023-05-09T20:11:50.546Z,100563.53
2023-05-09T20:14:53.133Z,100562.72
2023-05-09T20:17:56.325Z,100563.63
2023-05-09T20:20:59.563Z,100566.28
2023-05-09T20:24:02.693Z,100569.84
2023-05-09T20:27:05.456Z,100565.50
2023-05-09T20:30:08.532Z,100573.38
2023-05-09T20:33:11.273Z,100554.97
2023-05-09T20:36:14.041Z,100561.25
2023-05-09T20:39:17.789Z,100563.06
2023-05-09T20:42:21.174Z,100565.66
2023-05-09T20:45:23.935Z,100556.91
2023-05-09T20:48:26.600Z,100549.91
2023-05-09T20:51:29.326Z,100548.13
2023-05-09T20:54:32.064Z,100550.75
2023-05-09T20:57:34.692Z,100540.31
2023-05-09T21:00:37.327Z,100547.28
2023-05-09T21:03:40.010Z,100547.22
2023-05-09T21:06:42.865Z,100541.13
2023-05-09T21:09:48.403Z,100545.47
2023-05-09T21:12:51.073Z,100541.19
2023-05-09T21:15:53.762Z,100535.06
2023-05-09T21:18:57.387Z,100537.00
2023-05-09T21:22:00.139Z,100542.19
2023-05-09T21:25:02.897Z,100540.22
2023-05-09T21:28:06.206Z,100534.19
2023-05-09T21:31:11.154Z,100537.66
2023-05-09T21:34:14.137Z,100534.19
2023-05-09T21:37:16.725Z,100534.28
2023-05-09T21:40:19.351Z,100526.31
2023-05-09T21:43:22.187Z,100533.31
2023-05-09T21:46:24.849Z,100542.09
2023-05-09T21:49:28.840Z,100536.81
2023-05-09T21:52:31.589Z,100541.09
2023-05-09T21:55:34.466Z,100533.19
2023-05-09T21:58:37.695Z,100535.06
2023-05-09T22:01:40.344Z,100528.06
2023-05-09T22:04:43.365Z,100530.66
2023-05-09T22:07:45.930Z,100535.19
2023-05-09T22:10:48.979Z,100536.06
2023-05-09T22:13:52.347Z,100529.13
2023-05-09T22:16:55.466Z,100540.34
2023-05-09T22:19:58.934Z,100534.16
2023-05-09T22:23:01.895Z,100526.44
2023-05-09T22:26:04.309Z,100523.88
2023-05-09T22:29:07.149Z,100521.25
2023-05-09T22:32:09.635Z,100527.19
2023-05-09T22:35:12.719Z,100521.16
2023-05-09T22:38:15.154Z,100532.88
2023-05-09T22:41:17.984Z,100527.69
2023-05-09T22:44:20.224Z,100530.03
2023-05-09T22:47:23.285Z,100528.13
2023-05-09T22:50:25.635Z,100526.38
2023-05-09T22:53:28.802Z,100524.66
2023-05-09T22:56:31.168Z,100521.47
2023-05-09T22:59:34.545Z,100520.50
2023-05-09T23:02:37.304Z,100522.19
2023-05-09T23:05:58.908Z,100523.09
2023-05-09T23:09:29.517Z,100525.75
2023-05-09T23:12:32.136Z,100514.50
2023-05-09T23:15:35.464Z,100518.09
2023-05-09T23:18:38.118Z,100512.06
2023-05-09T23:21:40.692Z,100514.78
2023-05-09T23:24:43.443Z,100512.19
2023-05-09T23:27:46.992Z,100515.81
2023-05-09T23:30:49.605Z,100517.56
2023-05-09T23:33:53.465Z,100512.28
2023-05-09T23:36:56.039Z,100520.19
2023-05-09T23:39:59.169Z,100514.16
2023-05-09T23:43:01.835Z,100508.88
2023-05-09T23:46:04.574Z,100498.34
2023-05-09T23:49:07.369Z,100498.25
2023-05-09T23:52:09.996Z,100504.41
2023-05-09T23:55:13.047Z,100494.81
2023-05-09T23:58:15.669Z,100495.69
